createdAt,value
2022-11-02T00:00:53.176Z,18.21
2022-11-02T00:03:32.548Z,18.36
2022-11-02T00:06:03.581Z,18.45
2022-11-02T00:08:34.438Z,18.71
2022-11-02T00:11:03.449Z,18.65
2022-11-02T00:13:34.986Z,18.50
2022-11-02T00:16:06.944Z,18.54
2022-11-02T00:18:38.745Z,18.83
2022-11-02T00:21:11.999Z,18.78
2022-11-02T00:23:42.989Z,18.87
2022-11-02T00:26:12.238Z,18.87
2022-11-02T00:28:43.294Z,18.98
2022-11-02T00:31:12.961Z,18.85
2022-11-02T00:33:43.130Z,18.89
2022-11-02T00:36:14.838Z,19.11
2022-11-02T00:38:46.096Z,19.18
2022-11-02T00:41:22.798Z,19.45
2022-11-02T00:44:24.905Z,19.57
2022-11-02T00:47:46.851Z,19.80
2022-11-02T00:50:18.980Z,19.84
2022-11-02T00:52:52.136Z,19.19
2022-11-02T00:55:47.975Z,18.29
2022-11-02T00:58:22.125Z,17.82
2022-11-02T01:06:05.160Z,17.63
2022-11-02T01:24:50.724Z,17.93
2022-11-02T01:27:49.177Z,17.92
2022-11-02T01:30:18.091Z,17.76
2022-11-02T01:32:47.284Z,16.99
2022-11-02T01:35:17.963Z,16.88
2022-11-02T01:37:48.233Z,16.73
2022-11-02T01:40:17.564Z,16.55
2022-11-02T01:42:49.135Z,16.51
2022-11-02T01:45:20.236Z,16.61
2022-11-02T01:48:16.185Z,16.62
2022-11-02T01:50:48.807Z,16.55
2022-11-02T01:53:32.281Z,16.70
2022-11-02T01:58:59.367Z,16.44
2022-11-02T02:01:30.247Z,16.58
2022-11-02T02:04:01.142Z,16.68
2022-11-02T02:06:42.348Z,16.71
2022-11-02T02:09:13.082Z,16.34
2022-11-02T02:11:44.048Z,16.56
2022-11-02T02:14:19.870Z,16.76
2022-11-02T02:17:32.378Z,16.98
2022-11-02T02:20:06.838Z,17.02
2022-11-02T02:23:12.992Z,17.23
2022-11-02T02:26:15.224Z,17.33
2022-11-02T02:28:51.439Z,17.27
2022-11-02T02:31:28.627Z,17.28
2022-11-02T02:34:04.132Z,17.31
2022-11-02T02:36:37.895Z,17.40
2022-11-02T02:39:13.728Z,17.38
2022-11-02T02:41:47.180Z,17.40
2022-11-02T02:44:24.153Z,17.48
2022-11-02T02:47:00.351Z,17.44
2022-11-02T02:49:37.981Z,17.47
2022-11-02T02:52:07.894Z,17.44
2022-11-02T02:54:42.957Z,17.43
2022-11-02T02:57:16.721Z,17.45
2022-11-02T02:59:50.066Z,17.41
2022-11-02T03:02:25.118Z,17.41
2022-11-02T03:04:55.615Z,17.38
2022-11-02T03:07:31.133Z,16.30
2022-11-02T03:10:27.038Z,16.55
2022-11-02T03:13:12.619Z,16.56
2022-11-02T03:15:59.540Z,16.57
2022-11-02T03:18:54.348Z,16.62
2022-11-02T03:21:35.834Z,16.66
2022-11-02T03:24:15.357Z,16.72
2022-11-02T03:26:53.735Z,16.57
2022-11-02T03:29:52.303Z,16.53
2022-11-02T03:32:31.065Z,16.21
2022-11-02T03:35:05.715Z,15.58
2022-11-02T03:37:41.561Z,15.57
2022-11-02T03:40:21.403Z,15.59
2022-11-02T03:42:54.342Z,15.62
2022-11-02T03:45:50.281Z,15.93
2022-11-02T03:48:27.697Z,16.18
2022-11-02T03:51:21.872Z,15.82
2022-11-02T03:53:58.072Z,16.09
2022-11-02T03:56:35.443Z,15.86
2022-11-02T03:59:09.638Z,15.49
2022-11-02T04:01:44.517Z,15.78
2022-11-02T04:04:21.111Z,15.97
2022-11-02T04:06:51.371Z,16.05
2022-11-02T04:09:21.558Z,16.22
2022-11-02T04:12:09.057Z,16.41
2022-11-02T04:15:02.848Z,16.15
2022-11-02T04:18:15.697Z,16.21
2022-11-02T04:22:11.267Z,16.53
2022-11-02T04:25:00.185Z,16.57
2022-11-02T04:27:33.454Z,16.68
2022-11-02T04:30:02.792Z,16.77
2022-11-02T04:32:56.724Z,16.88
2022-11-02T04:35:29.829Z,16.89
2022-11-02T04:38:26.417Z,16.94
2022-11-02T04:44:11.779Z,16.93
2022-11-02T04:46:43.552Z,16.97
2022-11-02T04:49:14.453Z,17.01
2022-11-02T04:51:49.704Z,17.06
2022-11-02T04:54:22.613Z,17.03
2022-11-02T04:56:57.593Z,17.01
2022-11-02T04:59:29.201Z,17.00
2022-11-02T05:02:30.204Z,17.03
2022-11-02T05:05:07.042Z,17.00
2022-11-02T05:09:14.205Z,17.20
2022-11-02T05:11:53.826Z,16.03
2022-11-02T05:14:31.368Z,15.01
2022-11-02T05:17:01.462Z,14.77
2022-11-02T05:19:53.728Z,14.80
2022-11-02T05:22:33.869Z,14.45
2022-11-02T05:25:04.807Z,13.81
2022-11-02T05:27:39.313Z,13.77
2022-11-02T05:30:12.127Z,13.49
2022-11-02T05:32:43.401Z,13.43
2022-11-02T05:35:15.770Z,13.25
2022-11-02T05:37:52.161Z,13.58
2022-11-02T05:40:26.049Z,14.13
2022-11-02T05:46:53.077Z,14.86
2022-11-02T05:49:31.345Z,15.12
2022-11-02T05:52:42.444Z,15.35
2022-11-02T05:55:31.086Z,15.48
2022-11-02T05:58:03.362Z,15.45
2022-11-02T06:00:35.435Z,15.67
2022-11-02T06:03:05.413Z,15.09
2022-11-02T06:05:35.118Z,14.17
2022-11-02T06:11:32.606Z,13.50
2022-11-02T06:14:45.857Z,13.07
2022-11-02T06:17:50.089Z,12.93
2022-11-02T06:20:22.550Z,12.56
2022-11-02T06:24:00.108Z,12.88
2022-11-02T06:26:43.442Z,13.39
2022-11-02T06:29:52.655Z,13.67
2022-11-02T06:32:24.061Z,13.01
2022-11-02T06:34:53.955Z,12.87
2022-11-02T06:37:23.868Z,13.40
2022-11-02T06:39:54.182Z,13.72
2022-11-02T06:42:23.360Z,13.57
2022-11-02T06:44:56.751Z,13.28
2022-11-02T06:47:43.345Z,13.27
2022-11-02T06:50:16.189Z,13.72
2022-11-02T06:53:06.092Z,13.74
2022-11-02T06:55:58.018Z,14.14
2022-11-02T06:58:27.818Z,14.17
2022-11-02T07:01:04.137Z,14.38
2022-11-02T07:03:33.586Z,14.05
2022-11-02T07:06:03.706Z,14.11
2022-11-02T07:08:32.308Z,14.23
2022-11-02T07:11:01.029Z,14.55
2022-11-02T07:13:29.513Z,14.85
2022-11-02T07:15:58.326Z,15.07
2022-11-02T07:18:28.764Z,15.10
2022-11-02T07:21:00.186Z,15.21
2022-11-02T07:23:28.807Z,15.42
2022-11-02T07:25:57.558Z,15.43
2022-11-02T07:28:26.421Z,15.44
2022-11-02T07:30:58.573Z,15.60
2022-11-02T07:33:28.836Z,15.68
2022-11-02T07:35:57.862Z,15.52
2022-11-02T07:38:27.669Z,15.39
2022-11-02T07:40:57.707Z,15.45
2022-11-02T07:43:26.634Z,15.37
2022-11-02T07:46:15.955Z,15.44
2022-11-02T07:48:46.085Z,15.48
2022-11-02T07:51:15.436Z,15.53
2022-11-02T07:53:46.238Z,15.64
2022-11-02T07:56:15.250Z,15.77
2022-11-02T07:58:44.179Z,15.79
2022-11-02T08:01:14.094Z,15.82
2022-11-02T08:03:42.778Z,15.88
2022-11-02T08:06:13.424Z,15.80
2022-11-02T08:08:42.590Z,15.90
2022-11-02T08:11:32.999Z,15.87
2022-11-02T08:14:02.557Z,15.96
2022-11-02T08:16:31.349Z,15.98
2022-11-02T08:19:00.543Z,16.02
2022-11-02T08:21:30.263Z,16.07
2022-11-02T08:23:59.083Z,16.17
2022-11-02T08:26:27.787Z,16.11
2022-11-02T08:29:02.589Z,16.18
2022-11-02T08:31:33.365Z,16.26
2022-11-02T08:34:04.100Z,16.33
2022-11-02T08:36:36.793Z,16.18
2022-11-02T08:39:07.674Z,16.15
2022-11-02T08:41:37.332Z,16.26
2022-11-02T08:44:28.424Z,16.39
2022-11-02T08:46:58.853Z,16.54
2022-11-02T08:49:33.015Z,16.65
2022-11-02T08:52:04.978Z,16.79
2022-11-02T08:54:34.591Z,16.87
2022-11-02T08:57:03.471Z,16.95
2022-11-02T08:59:35.068Z,16.97
2022-11-02T09:02:07.698Z,16.92
2022-11-02T09:04:36.913Z,16.99
2022-11-02T09:07:06.904Z,17.12
2022-11-02T09:09:36.155Z,17.27
2022-11-02T09:12:05.334Z,17.36
2022-11-02T09:14:34.743Z,17.50
2022-11-02T09:17:05.454Z,17.59
2022-11-02T09:19:37.014Z,17.74
2022-11-02T09:22:08.079Z,17.87
2022-11-02T09:24:39.301Z,17.81
2022-11-02T09:27:08.426Z,17.76
2022-11-02T09:29:38.415Z,17.87
2022-11-02T09:32:07.359Z,17.98
2022-11-02T09:34:37.787Z,17.99
2022-11-02T09:37:09.156Z,17.98
2022-11-02T09:39:38.989Z,18.00
2022-11-02T09:42:20.687Z,18.17
2022-11-02T09:44:55.251Z,18.21
2022-11-02T09:48:10.888Z,18.31
2022-11-02T09:50:19.803Z,18.46
2022-11-02T09:52:56.642Z,18.34
2022-11-02T09:55:31.399Z,18.35
2022-11-02T09:58:06.404Z,18.27
2022-11-02T10:00:41.740Z,18.30
2022-11-02T10:03:24.847Z,18.41
2022-11-02T10:06:00.130Z,18.35
2022-11-02T10:08:41.022Z,18.49
2022-11-02T10:11:32.388Z,18.57
2022-11-02T10:14:08.437Z,18.45
2022-11-02T10:16:41.369Z,18.38
2022-11-02T10:19:16.523Z,18.23
2022-11-02T10:21:49.963Z,17.07
2022-11-02T10:24:26.470Z,15.71
2022-11-02T10:27:01.117Z,15.87
2022-11-02T10:29:50.804Z,16.43
2022-11-02T10:32:20.180Z,16.41
2022-11-02T10:35:33.848Z,16.61
2022-11-02T10:38:24.046Z,16.06
2022-11-02T10:41:13.809Z,16.62
2022-11-02T10:44:04.437Z,15.05
2022-11-02T10:46:44.245Z,15.25
2022-11-02T10:49:27.481Z,15.80
2022-11-02T10:52:18.626Z,15.61
2022-11-02T10:54:51.075Z,15.15
2022-11-02T10:57:26.364Z,15.19
2022-11-02T11:00:24.028Z,14.90
2022-11-02T11:03:10.632Z,15.32
2022-11-02T11:05:59.483Z,15.93
2022-11-02T11:08:37.630Z,16.25
2022-11-02T11:11:20.258Z,16.67
2022-11-02T11:16:52.741Z,16.74
2022-11-02T11:19:41.156Z,16.62
2022-11-02T11:22:28.101Z,16.21
2022-11-02T11:25:27.101Z,15.73
2022-11-02T11:27:58.269Z,15.67
2022-11-02T11:33:23.449Z,14.86
2022-11-02T11:35:53.283Z,14.74
2022-11-02T11:38:26.277Z,14.71
2022-11-02T11:40:57.125Z,14.92
2022-11-02T11:43:29.615Z,15.24
2022-11-02T11:46:06.543Z,14.73
2022-11-02T11:48:39.484Z,14.94
2022-11-02T11:51:30.718Z,14.72
2022-11-02T11:54:20.240Z,14.92
2022-11-02T11:56:50.693Z,14.78
2022-11-02T11:59:25.395Z,14.89
2022-11-02T12:01:59.009Z,14.56
2022-11-02T12:04:37.677Z,14.93
2022-11-02T12:07:30.519Z,14.92
2022-11-02T12:10:10.753Z,14.65
2022-11-02T12:12:54.782Z,14.79
2022-11-02T12:15:44.075Z,14.67
2022-11-02T12:18:33.304Z,14.20
2022-11-02T12:21:40.863Z,14.11
2022-11-02T12:24:46.370Z,14.27
2022-11-02T12:27:29.306Z,14.72
2022-11-02T12:30:18.633Z,15.19
2022-11-02T12:33:06.498Z,15.63
2022-11-02T12:35:57.621Z,16.18
2022-11-02T12:38:50.837Z,16.08
2022-11-02T12:41:41.939Z,15.65
2022-11-02T12:44:28.354Z,15.27
2022-11-02T12:47:07.341Z,14.97
2022-11-02T12:49:46.815Z,14.60
2022-11-02T12:52:29.550Z,14.72
2022-11-02T12:55:05.266Z,15.23
2022-11-02T12:57:41.449Z,15.16
2022-11-02T13:00:20.692Z,14.65
2022-11-02T13:02:59.260Z,14.38
2022-11-02T13:05:35.803Z,14.29
2022-11-02T13:08:16.267Z,14.55
2022-11-02T13:10:53.475Z,14.49
2022-11-02T13:13:46.566Z,14.47
2022-11-02T13:16:18.873Z,15.10
2022-11-02T13:18:53.349Z,15.21
2022-11-02T13:21:38.570Z,14.74
2022-11-02T13:24:19.917Z,15.00
2022-11-02T13:26:57.192Z,15.50
2022-11-02T13:29:36.790Z,15.92
2022-11-02T13:32:12.242Z,15.38
2022-11-02T13:34:44.576Z,15.47
2022-11-02T13:37:18.366Z,15.40
2022-11-02T13:39:52.653Z,15.04
2022-11-02T13:42:43.818Z,15.36
2022-11-02T13:45:46.272Z,16.01
2022-11-02T13:48:37.592Z,16.35
2022-11-02T13:51:09.253Z,16.57
2022-11-02T13:53:42.472Z,16.70
2022-11-02T13:56:22.625Z,16.88
2022-11-02T13:58:58.956Z,17.07
2022-11-02T14:01:31.698Z,17.07
2022-11-02T14:04:05.758Z,17.27
2022-11-02T14:06:44.730Z,16.76
2022-11-02T14:09:25.747Z,16.85
2022-11-02T14:12:12.956Z,17.01
2022-11-02T14:14:42.589Z,16.76
2022-11-02T14:17:13.514Z,16.18
2022-11-02T14:20:04.776Z,16.66
2022-11-02T14:22:33.439Z,16.68
2022-11-02T14:25:20.226Z,16.84
2022-11-02T14:27:50.032Z,16.91
2022-11-02T14:30:46.653Z,17.18
2022-11-02T14:33:40.034Z,17.22
2022-11-02T14:36:21.331Z,17.21
2022-11-02T14:38:59.890Z,17.38
2022-11-02T14:42:23.224Z,17.38
2022-11-02T14:45:25.720Z,17.42
2022-11-02T14:48:00.054Z,17.38
2022-11-02T14:50:28.827Z,17.41
2022-11-02T14:53:04.277Z,17.51
2022-11-02T14:55:34.660Z,17.49
2022-11-02T14:58:10.802Z,17.38
2022-11-02T15:00:58.304Z,17.64
2022-11-02T15:03:41.994Z,17.65
2022-11-02T15:06:22.787Z,17.43
2022-11-02T15:08:56.007Z,17.45
2022-11-02T15:11:48.513Z,17.63
2022-11-02T15:14:55.198Z,17.43
2022-11-02T15:18:17.462Z,17.04
2022-11-02T15:20:47.075Z,17.02
2022-11-02T15:23:30.727Z,16.92
2022-11-02T15:26:01.949Z,17.08
2022-11-02T15:28:38.440Z,17.10
2022-11-02T15:31:21.762Z,17.22
2022-11-02T15:34:01.139Z,17.18
2022-11-02T15:36:50.788Z,17.09
2022-11-02T15:39:20.271Z,17.10
2022-11-02T15:42:02.698Z,17.21
2022-11-02T15:45:05.496Z,17.42
2022-11-02T15:47:55.774Z,17.40
2022-11-02T15:50:41.174Z,17.41
2022-11-02T15:53:42.400Z,17.29
2022-11-02T15:56:36.833Z,17.32
2022-11-02T15:59:41.904Z,17.08
2022-11-02T16:02:20.707Z,16.95
2022-11-02T16:04:53.100Z,16.87
2022-11-02T16:07:33.183Z,17.00
2022-11-02T16:10:23.501Z,17.05
2022-11-02T16:13:01.452Z,16.85
2022-11-02T16:15:31.642Z,16.90
2022-11-02T16:18:01.008Z,16.99
2022-11-02T16:20:33.811Z,16.85
2022-11-02T16:23:06.203Z,16.96
2022-11-02T16:25:40.374Z,17.01
2022-11-02T16:28:19.499Z,16.73
2022-11-02T16:31:08.239Z,16.57
2022-11-02T16:34:03.437Z,16.67
2022-11-02T16:36:36.361Z,16.16
2022-11-02T16:39:17.093Z,16.20
2022-11-02T16:41:51.957Z,16.10
2022-11-02T16:44:26.892Z,16.11
2022-11-02T16:47:00.480Z,16.03
2022-11-02T16:49:59.828Z,16.03
2022-11-02T16:52:34.242Z,16.12
2022-11-02T16:55:24.871Z,16.17
2022-11-02T16:57:53.769Z,16.19
2022-11-02T17:00:23.020Z,16.25
2022-11-02T17:02:55.812Z,16.45
2022-11-02T17:05:27.403Z,16.44
2022-11-02T17:08:01.717Z,16.62
2022-11-02T17:10:34.360Z,16.59
2022-11-02T17:13:09.322Z,16.77
2022-11-02T17:15:40.012Z,16.81
2022-11-02T17:18:25.163Z,16.95
2022-11-02T17:21:24.531Z,17.12
2022-11-02T17:23:56.475Z,17.10
2022-11-02T17:26:38.265Z,17.21
2022-11-02T17:29:47.090Z,17.32
2022-11-02T17:32:18.022Z,17.28
2022-11-02T17:34:54.795Z,17.40
2022-11-02T17:37:30.631Z,17.48
2022-11-02T17:40:02.767Z,17.50
2022-11-02T17:42:50.429Z,17.50
2022-11-02T17:45:28.629Z,17.40
2022-11-02T17:47:59.055Z,17.32
2022-11-02T17:50:30.944Z,17.40
2022-11-02T17:53:01.494Z,17.41
2022-11-02T17:55:33.322Z,17.39
2022-11-02T17:58:03.295Z,17.38
2022-11-02T18:00:35.257Z,17.31
2022-11-02T18:03:04.580Z,16.84
2022-11-02T18:05:37.588Z,17.08
2022-11-02T18:08:09.047Z,17.16
2022-11-02T18:10:40.848Z,17.24
2022-11-02T18:13:13.363Z,17.33
2022-11-02T18:15:42.943Z,17.37
2022-11-02T18:18:11.925Z,17.38
2022-11-02T18:21:02.565Z,17.45
2022-11-02T18:23:33.052Z,17.50
2022-11-02T18:26:01.953Z,17.39
2022-11-02T18:28:34.739Z,17.50
2022-11-02T18:31:07.724Z,17.51
2022-11-02T18:33:36.876Z,17.46
2022-11-02T18:36:07.848Z,17.50
2022-11-02T18:38:37.015Z,17.47
2022-11-02T18:41:29.837Z,17.52
2022-11-02T18:44:05.598Z,17.53
2022-11-02T18:46:36.188Z,17.46
2022-11-02T18:49:05.083Z,16.93
2022-11-02T18:51:34.609Z,16.96
2022-11-02T18:54:06.186Z,16.69
2022-11-02T18:56:35.477Z,16.90
2022-11-02T18:59:05.615Z,16.94
2022-11-02T19:01:35.080Z,17.02
2022-11-02T19:04:04.422Z,16.89
2022-11-02T19:06:52.077Z,16.22
2022-11-02T19:09:23.411Z,16.45
2022-11-02T19:11:56.873Z,16.20
2022-11-02T19:14:28.858Z,16.18
2022-11-02T19:16:57.970Z,16.43
2022-11-02T19:19:29.099Z,16.66
2022-11-02T19:21:58.822Z,16.83
2022-11-02T19:24:47.592Z,16.99
2022-11-02T19:27:18.501Z,17.06
2022-11-02T19:29:48.772Z,16.98
2022-11-02T19:32:18.328Z,17.01
2022-11-02T19:34:48.253Z,17.05
2022-11-02T19:37:17.236Z,16.89
2022-11-02T19:39:45.945Z,16.59
2022-11-02T19:42:14.909Z,16.80
2022-11-02T19:44:46.141Z,16.90
2022-11-02T19:47:17.015Z,17.04
2022-11-02T19:49:46.811Z,17.11
2022-11-02T19:52:16.005Z,17.11
2022-11-02T19:54:44.578Z,17.18
2022-11-02T19:57:13.352Z,17.30
2022-11-02T19:59:44.493Z,17.29
2022-11-02T20:02:13.719Z,17.13
2022-11-02T20:04:44.345Z,17.25
2022-11-02T20:07:14.406Z,16.80
2022-11-02T20:09:43.232Z,16.70
2022-11-02T20:12:12.537Z,16.88
2022-11-02T20:14:41.298Z,16.91
2022-11-02T20:17:30.107Z,17.01
2022-11-02T20:20:01.425Z,16.02
2022-11-02T20:22:52.763Z,14.92
2022-11-02T20:25:23.180Z,15.12
2022-11-02T20:27:52.199Z,15.22
2022-11-02T20:30:22.455Z,15.57
2022-11-02T20:32:51.519Z,15.91
2022-11-02T20:35:25.702Z,16.20
2022-11-02T20:37:56.017Z,16.42
2022-11-02T20:40:28.092Z,16.62
2022-11-02T20:43:00.752Z,16.74
2022-11-02T20:45:31.187Z,16.89
2022-11-02T20:48:02.712Z,16.23
2022-11-02T20:50:33.991Z,16.59
2022-11-02T20:53:03.485Z,16.22
2022-11-02T20:55:53.644Z,15.88
2022-11-02T20:58:23.055Z,15.40
2022-11-02T21:00:52.910Z,14.76
2022-11-02T21:03:42.981Z,15.40
2022-11-02T21:06:13.353Z,15.68
2022-11-02T21:08:45.073Z,15.34
2022-11-02T21:11:31.378Z,15.25
2022-11-02T21:14:00.173Z,14.90
2022-11-02T21:16:31.072Z,14.69
2022-11-02T21:19:00.191Z,14.36
2022-11-02T21:21:30.418Z,14.75
2022-11-02T21:23:59.415Z,14.91
2022-11-02T21:26:29.556Z,14.94
2022-11-02T21:28:59.222Z,15.23
2022-11-02T21:31:31.927Z,15.11
2022-11-02T21:34:02.239Z,15.28
2022-11-02T21:36:33.982Z,14.98
2022-11-02T21:39:03.527Z,14.65
2022-11-02T21:41:38.388Z,14.85
2022-11-02T21:44:13.931Z,15.08
2022-11-02T21:47:02.726Z,15.26
2022-11-02T21:49:33.010Z,15.26
2022-11-02T21:52:03.637Z,15.42
2022-11-02T21:54:32.856Z,15.70
2022-11-02T21:57:03.589Z,15.60
2022-11-02T21:59:33.098Z,14.99
2022-11-02T22:02:00.940Z,14.56
2022-11-02T22:04:31.902Z,14.67
2022-11-02T22:07:05.553Z,14.54
2022-11-02T22:09:54.557Z,14.57
2022-11-02T22:12:40.937Z,14.66
2022-11-02T22:15:10.907Z,14.34
2022-11-02T22:17:49.734Z,14.74
2022-11-02T22:20:20.777Z,14.62
2022-11-02T22:22:52.337Z,14.42
2022-11-02T22:25:22.787Z,14.73
2022-11-02T22:27:53.721Z,14.44
2022-11-02T22:30:24.563Z,14.35
2022-11-02T22:32:53.900Z,14.17
2022-11-02T22:35:23.404Z,13.93
2022-11-02T22:38:11.034Z,14.12
2022-11-02T22:40:43.311Z,13.92
2022-11-02T22:43:12.805Z,13.71
2022-11-02T22:45:43.497Z,13.81
2022-11-02T22:48:13.883Z,14.31
2022-11-02T22:50:45.664Z,14.23
2022-11-02T22:53:17.659Z,14.40
2022-11-02T22:55:46.963Z,14.75
2022-11-02T22:58:16.457Z,15.12
2022-11-02T23:00:46.059Z,15.42
2022-11-02T23:03:17.040Z,15.66
2022-11-02T23:05:48.080Z,15.55
2022-11-02T23:08:20.891Z,15.78
2022-11-02T23:11:15.980Z,15.71
2022-11-02T23:13:50.315Z,15.79
2022-11-02T23:16:23.956Z,15.67
2022-11-02T23:19:18.890Z,15.85
2022-11-02T23:22:09.437Z,15.82
2022-11-02T23:24:57.990Z,16.10
2022-11-02T23:27:31.229Z,16.31
2022-11-02T23:30:17.940Z,15.83
2022-11-02T23:32:46.963Z,15.31
2022-11-02T23:35:39.125Z,15.19
2022-11-02T23:38:08.179Z,15.00
2022-11-02T23:40:40.090Z,15.47
2022-11-02T23:43:10.501Z,15.72
2022-11-02T23:45:39.931Z,15.80
2022-11-02T23:48:10.658Z,16.01
2022-11-02T23:50:56.904Z,16.24
2022-11-02T23:53:43.313Z,16.42
2022-11-02T23:56:35.828Z,16.62
2022-11-02T23:59:09.869Z,16.73
